Skip Navigation Links
NOAA logo - Click to go to the NOAA homepage
NOAA's National Weather Service
Alaska Aviation Weather Unit
  NWS logo - Click to go to the NWS homepage
Left Navbar Graphic     12 AKDT = 20 GMT

   
NOAA is celebrating 200 years of science, service, and stewardship. Visit the NOAA 200th celebration Web site to learn more.
USA.gov is the U.S. Government's official Web portal to all Federal, state and local government Web resources and services.
Facebook
NWS on Facebook

Important Change Regarding the AAWU Web Presence

 

Over the last several months, the AAWU has been working to navigate its webpages to a nationally supported server. Security, as well as other needs, have necessitated the change.  We have been given an extension for the site changeover while we diligently work at addressing feedback received. As of July 14, 2017, aawu.arh.noaa.gov will be discontinued. The new AAWU web address is weather.gov/aawu. It is now live and will run in-parallel with the old site until it is discontinued on July 14, 2017. Please continue to send any feedback or questions regarding the new webpages to nws.ar.aawu.webauthors@noaa.gov.  Thank you for your patience during this time of transition.
AAWU Home :: Display TAF Add Bookmark
SPECI PAVL 251403Z AUTO 07008KT 1 3/4SM BR OVC005 09/09 A2986 RMK AO2
     T00940089 TSNO PNO $=

SPECI PAVL 251414Z AUTO 07008KT 2SM BR OVC005 09/09 A2986 RMK AO2
     T00940089 TSNO PNO $=

SPECI PAVL 251436Z AUTO 07008KT 1 1/2SM -RA BR OVC005 09/09 A2986 RMK
     AO2 RAB32 T00940089 TSNO PNO $=

METAR PAVL 251453Z AUTO 07008KT 2SM RA BR OVC006 09/09 A2986 RMK AO2
 RAB32 SLP112 6//// T00940094 56006 TSNO PNO $=

SPECI PAVL 251511Z AUTO 06008KT 1 1/2SM RA BR OVC007 10/09 A2986 RMK AO2
     T01000094 TSNO PNO $=

PAVL 251528Z AUTO 06009KT 2SM RA BR OVC006 10/09 A2986 RMK AO2
     T01000094 TSNO PNO $=

SPECI PAVL 251541Z AUTO 07008KT 3SM -RA BR OVC006 10/09 A2986 RMK AO2
     T01000094 TSNO PNO $=

PAVL 251550Z AUTO 06008KT 2SM -RA BR OVC005 10/09 A2986 RMK AO2
     TSNO PNO $=

METAR PAVL 251553Z AUTO 06008KT 2SM -RA BR OVC005 10/09 A2986 RMK AO2
     SLP111 T01000094 TSNO PNO $=

SPECI PAVL 251609Z AUTO 08005KT 3SM -RA BR OVC005 10/09 A2986 RMK AO2
     T01000094 TSNO PNO $=

SPECI PAVL 251616Z AUTO 07008KT 4SM -RA BR OVC004 10/10 A2986 RMK AO2
     T01000100 TSNO PNO $=

SPECI PAVL 251629Z AUTO 07006KT 2SM -RA BR OVC004 10/10 A2986 RMK AO2
     T01000100 TSNO PNO $=

SPECI PAVL 251636Z AUTO 07006KT 1 1/2SM -RA BR OVC004 10/10 A2986 RMK
     AO2 T01000100 TSNO PNO $=

SPECI PAVL 251709Z AUTO 07006KT 1 1/2SM -RA BR OVC006 10/10 A2986 RMK
     AO2 T01000100 TSNO PNO $=

SPECI PAVL 251721Z AUTO 07007KT 2SM -RA BR OVC006 11/10 A2986 RMK
 AO2 T01060100 TSNO PNO $=

METAR PAVL 251753Z AUTO 08006KT 2SM -RA BR OVC006 11/10 A2986 RMK
 AO2 SLP110 6//// T01060100 10106 20089 58000 TSNO PNO $=

SPECI PAVL 251840Z AUTO 08006KT 3SM -RA BR OVC005 11/11 A2986 RMK AO2
     T01060106 TSNO PNO $=

PAVL 251850Z AUTO 08008KT 2 1/2SM RA BR OVC005 11/11 A2986 RMK AO2
     TSNO PNO $=

METAR PAVL 251853Z AUTO 08007KT 2 1/2SM RA BR OVC005 11/11 A2986 RMK AO2
     SLP111 T01060106 TSNO PNO $=

SPECI PAVL 251927Z AUTO 08007KT 3SM RA BR BKN005 OVC009 11/11 A2986 RMK
     AO2 T01060106 TSNO PNO $=

METAR PAVL 251953Z AUTO 08010KT 4SM -RA BR OVC007 11/11 A2986 RMK
 AO2 SLP112 T01060106 TSNO PNO $=

SPECI PAVL 252024Z AUTO 08009KT 1 3/4SM -RA BR OVC008 11/11 A2986 RMK
     AO2 T01110106 TSNO PNO $=


NOAA's National Weather Service
Alaska Aviation Weather Unit
6930 Sand Lake Road
Anchorage, AK 99502-1845
Disclaimer
Credits
Glossary
Privacy Policy
About Us
Career Opportunities
Contact AAWU Internet Services Site last modified: April, 17th 2012